TimeCDT,TemperatureF,Dew PointF,Humidity,Sea Level PressureIn,VisibilityMPH,Wind Direction,Wind SpeedMPH,Gust SpeedMPH,PrecipitationIn,Events,Conditions,WindDirDegrees,DateUTC
12:53 AM,70.0,66.9,90,29.96,8.0,SE,8.1,-,N/A,,Clear,130,2013-10-01 05:53:00
1:53 AM,70.0,66.9,90,29.96,7.0,SE,5.8,-,N/A,,Clear,140,2013-10-01 06:53:00
2:14 AM,69.8,66.2,88,29.98,7.0,SE,4.6,-,N/A,,Partly Cloudy,140,2013-10-01 07:14:00
2:53 AM,70.0,66.9,90,29.96,7.0,SE,5.8,-,N/A,,Partly Cloudy,130,2013-10-01 07:53:00
3:53 AM,70.0,66.9,90,29.96,7.0,ESE,5.8,-,N/A,,Clear,110,2013-10-01 08:53:00
4:53 AM,69.1,66.0,90,29.98,7.0,ESE,4.6,-,N/A,,Clear,120,2013-10-01 09:53:00
5:53 AM,69.1,66.0,90,30.00,8.0,ESE,5.8,-,N/A,,Clear,120,2013-10-01 10:53:00
6:53 AM,68.0,66.0,93,30.01,6.0,ESE,5.8,-,N/A,,Partly Cloudy,120,2013-10-01 11:53:00
7:53 AM,70.0,66.0,87,30.03,8.0,SE,5.8,-,N/A,,Clear,130,2013-10-01 12:53:00
8:53 AM,72.0,66.9,84,30.05,10.0,SE,4.6,-,N/A,,Scattered Clouds,130,2013-10-01 13:53:00
9:53 AM,75.0,68.0,79,30.05,10.0,SE,4.6,-,N/A,,Overcast,130,2013-10-01 14:53:00
10:53 AM,80.1,68.0,67,30.05,10.0,SE,8.1,-,N/A,,Overcast,140,2013-10-01 15:53:00
11:53 AM,81.0,69.1,67,30.04,10.0,ESE,4.6,-,N/A,,Overcast,110,2013-10-01 16:53:00
12:53 PM,84.0,68.0,58,30.02,10.0,ESE,5.8,-,N/A,,Mostly Cloudy,110,2013-10-01 17:53:00
1:53 PM,84.9,66.9,55,30.00,10.0,ESE,6.9,-,N/A,,Partly Cloudy,110,2013-10-01 18:53:00
2:53 PM,87.1,66.9,51,29.98,10.0,SSE,9.2,-,N/A,,Scattered Clouds,150,2013-10-01 19:53:00
3:53 PM,84.9,68.0,57,29.97,10.0,ESE,5.8,-,N/A,,Scattered Clouds,120,2013-10-01 20:53:00
4:53 PM,84.0,68.0,58,29.97,10.0,ESE,8.1,-,N/A,,Clear,120,2013-10-01 21:53:00
5:53 PM,82.0,68.0,62,29.99,10.0,SE,6.9,-,N/A,,Clear,130,2013-10-01 22:53:00
6:53 PM,80.1,69.1,69,29.99,10.0,SE,5.8,-,N/A,,Clear,130,2013-10-01 23:53:00
7:53 PM,79.0,69.1,72,30.00,10.0,SE,5.8,-,N/A,,Partly Cloudy,130,2013-10-02 00:53:00
8:53 PM,78.1,69.1,74,30.01,10.0,ESE,3.5,-,N/A,,Clear,110,2013-10-02 01:53:00
9:53 PM,77.0,70.0,79,30.03,10.0,SSE,5.8,-,N/A,,Clear,150,2013-10-02 02:53:00
10:53 PM,75.9,70.0,82,30.03,10.0,ESE,4.6,-,N/A,,Clear,110,2013-10-02 03:53:00
11:53 PM,75.0,70.0,84,30.03,10.0,SE,3.5,-,N/A,,Clear,130,2013-10-02 04:53:00